sensor_id;sensor_type;location;lat;lon;timestamp;temperature;humidity
52381;DHT22;38310;52.796;6.942;2023-06-19T00:02:01;21.70;99.90
52381;DHT22;38310;52.796;6.942;2023-06-19T00:04:27;21.70;99.90
52381;DHT22;38310;52.796;6.942;2023-06-19T00:06:53;21.80;99.90
52381;DHT22;38310;52.796;6.942;2023-06-19T00:09:19;21.90;99.90
52381;DHT22;38310;52.796;6.942;2023-06-19T00:11:45;22.00;99.90
52381;DHT22;38310;52.796;6.942;2023-06-19T00:14:11;22.10;99.90
52381;DHT22;38310;52.796;6.942;2023-06-19T00:16:37;22.10;99.90
52381;DHT22;38310;52.796;6.942;2023-06-19T00:19:02;22.20;99.90
52381;DHT22;38310;52.796;6.942;2023-06-19T00:21:29;22.20;99.90
52381;DHT22;38310;52.796;6.942;2023-06-19T00:23:55;22.20;99.90
52381;DHT22;38310;52.796;6.942;2023-06-19T00:26:21;22.20;99.90
52381;DHT22;38310;52.796;6.942;2023-06-19T00:28:51;22.30;99.90
52381;DHT22;38310;52.796;6.942;2023-06-19T00:31:18;22.30;99.90
52381;DHT22;38310;52.796;6.942;2023-06-19T00:33:47;22.30;99.90
52381;DHT22;38310;52.796;6.942;2023-06-19T00:36:15;22.40;99.90
52381;DHT22;38310;52.796;6.942;2023-06-19T00:38:41;22.40;99.90
52381;DHT22;38310;52.796;6.942;2023-06-19T00:41:07;22.50;99.90
52381;DHT22;38310;52.796;6.942;2023-06-19T00:43:34;22.50;99.90
52381;DHT22;38310;52.796;6.942;2023-06-19T00:46:00;22.50;99.90
52381;DHT22;38310;52.796;6.942;2023-06-19T00:48:31;22.60;99.90
52381;DHT22;38310;52.796;6.942;2023-06-19T00:50:58;22.60;99.90
52381;DHT22;38310;52.796;6.942;2023-06-19T00:53:24;22.50;99.90
52381;DHT22;38310;52.796;6.942;2023-06-19T00:55:51;22.50;99.90
52381;DHT22;38310;52.796;6.942;2023-06-19T00:58:19;22.50;99.90
52381;DHT22;38310;52.796;6.942;2023-06-19T01:00:45;22.40;99.90
52381;DHT22;38310;52.796;6.942;2023-06-19T01:03:11;22.50;99.90
52381;DHT22;38310;52.796;6.942;2023-06-19T01:05:37;22.40;99.90
52381;DHT22;38310;52.796;6.942;2023-06-19T01:10:48;22.40;99.90
52381;DHT22;38310;52.796;6.942;2023-06-19T01:15:44;22.40;99.90
52381;DHT22;38310;52.796;6.942;2023-06-19T01:18:10;22.30;99.90
52381;DHT22;38310;52.796;6.942;2023-06-19T01:20:38;22.30;99.90
52381;DHT22;38310;52.796;6.942;2023-06-19T01:23:09;22.30;99.90
52381;DHT22;38310;52.796;6.942;2023-06-19T01:25:36;22.30;99.90
52381;DHT22;38310;52.796;6.942;2023-06-19T01:28:03;22.30;99.90
52381;DHT22;38310;52.796;6.942;2023-06-19T01:30:31;22.30;99.90
52381;DHT22;38310;52.796;6.942;2023-06-19T01:33:03;22.30;99.90
52381;DHT22;38310;52.796;6.942;2023-06-19T01:35:35;22.20;99.90
52381;DHT22;38310;52.796;6.942;2023-06-19T01:38:01;22.20;99.90
52381;DHT22;38310;52.796;6.942;2023-06-19T01:40:28;22.20;99.90
52381;DHT22;38310;52.796;6.942;2023-06-19T01:42:58;22.20;99.90
52381;DHT22;38310;52.796;6.942;2023-06-19T01:45:28;22.20;99.90
52381;DHT22;38310;52.796;6.942;2023-06-19T01:47:54;22.20;99.90
52381;DHT22;38310;52.796;6.942;2023-06-19T01:50:22;22.10;99.90
52381;DHT22;38310;52.796;6.942;2023-06-19T01:52:49;22.10;99.90
52381;DHT22;38310;52.796;6.942;2023-06-19T01:55:14;22.10;99.90
52381;DHT22;38310;52.796;6.942;2023-06-19T01:57:41;22.10;99.90
52381;DHT22;38310;52.796;6.942;2023-06-19T02:00:07;22.10;99.90
52381;DHT22;38310;52.796;6.942;2023-06-19T02:02:39;22.00;99.90
52381;DHT22;38310;52.796;6.942;2023-06-19T02:05:04;22.00;99.90
52381;DHT22;38310;52.796;6.942;2023-06-19T02:07:30;22.00;99.90
52381;DHT22;38310;52.796;6.942;2023-06-19T02:09:57;21.90;99.90
52381;DHT22;38310;52.796;6.942;2023-06-19T02:12:23;21.90;99.90
52381;DHT22;38310;52.796;6.942;2023-06-19T02:14:49;21.80;99.90
52381;DHT22;38310;52.796;6.942;2023-06-19T02:17:14;21.80;99.90
52381;DHT22;38310;52.796;6.942;2023-06-19T02:19:40;21.80;99.90
52381;DHT22;38310;52.796;6.942;2023-06-19T02:22:06;21.70;99.90
52381;DHT22;38310;52.796;6.942;2023-06-19T02:24:32;21.70;99.90
52381;DHT22;38310;52.796;6.942;2023-06-19T02:26:58;21.70;99.90
52381;DHT22;38310;52.796;6.942;2023-06-19T02:29:25;21.70;99.90
52381;DHT22;38310;52.796;6.942;2023-06-19T02:31:51;21.90;99.90
52381;DHT22;38310;52.796;6.942;2023-06-19T02:34:17;21.70;99.90
52381;DHT22;38310;52.796;6.942;2023-06-19T02:36:43;21.70;99.90
52381;DHT22;38310;52.796;6.942;2023-06-19T02:39:09;21.70;99.90
52381;DHT22;38310;52.796;6.942;2023-06-19T02:41:34;21.80;99.90
52381;DHT22;38310;52.796;6.942;2023-06-19T02:44:01;21.80;99.90
52381;DHT22;38310;52.796;6.942;2023-06-19T02:46:27;21.80;99.90
52381;DHT22;38310;52.796;6.942;2023-06-19T02:48:53;21.90;99.90
52381;DHT22;38310;52.796;6.942;2023-06-19T02:51:18;21.90;99.90
52381;DHT22;38310;52.796;6.942;2023-06-19T02:53:44;21.90;99.90
52381;DHT22;38310;52.796;6.942;2023-06-19T02:56:11;21.90;99.90
52381;DHT22;38310;52.796;6.942;2023-06-19T02:58:38;21.90;99.90
52381;DHT22;38310;52.796;6.942;2023-06-19T03:01:04;21.90;99.90
52381;DHT22;38310;52.796;6.942;2023-06-19T03:03:32;21.90;99.90
52381;DHT22;38310;52.796;6.942;2023-06-19T03:06:04;21.90;99.90
52381;DHT22;38310;52.796;6.942;2023-06-19T03:08:32;21.90;99.90
52381;DHT22;38310;52.796;6.942;2023-06-19T03:10:58;21.80;99.90
52381;DHT22;38310;52.796;6.942;2023-06-19T03:13:24;21.80;99.90
52381;DHT22;38310;52.796;6.942;2023-06-19T03:15:49;21.80;99.90
52381;DHT22;38310;52.796;6.942;2023-06-19T03:18:15;21.80;99.90
52381;DHT22;38310;52.796;6.942;2023-06-19T03:20:41;21.80;99.90
52381;DHT22;38310;52.796;6.942;2023-06-19T03:23:06;21.70;99.90
52381;DHT22;38310;52.796;6.942;2023-06-19T03:25:32;21.70;99.90
52381;DHT22;38310;52.796;6.942;2023-06-19T03:28:01;21.70;99.90
52381;DHT22;38310;52.796;6.942;2023-06-19T03:30:27;21.80;99.90
52381;DHT22;38310;52.796;6.942;2023-06-19T03:32:53;21.80;99.90
52381;DHT22;38310;52.796;6.942;2023-06-19T03:35:19;21.80;99.90
52381;DHT22;38310;52.796;6.942;2023-06-19T03:37:45;21.80;99.90
52381;DHT22;38310;52.796;6.942;2023-06-19T03:40:11;21.80;99.90
52381;DHT22;38310;52.796;6.942;2023-06-19T03:42:39;21.80;99.90
52381;DHT22;38310;52.796;6.942;2023-06-19T03:45:06;21.80;99.90
52381;DHT22;38310;52.796;6.942;2023-06-19T03:47:32;21.80;99.90
52381;DHT22;38310;52.796;6.942;2023-06-19T03:49:57;21.80;99.90
52381;DHT22;38310;52.796;6.942;2023-06-19T03:52:23;21.90;99.90
52381;DHT22;38310;52.796;6.942;2023-06-19T03:54:49;21.80;99.90
52381;DHT22;38310;52.796;6.942;2023-06-19T03:57:15;21.80;99.90
52381;DHT22;38310;52.796;6.942;2023-06-19T03:59:41;21.80;99.90
52381;DHT22;38310;52.796;6.942;2023-06-19T04:02:06;21.90;99.90
52381;DHT22;38310;52.796;6.942;2023-06-19T04:04:32;21.90;99.90
52381;DHT22;38310;52.796;6.942;2023-06-19T04:06:58;21.80;99.90
52381;DHT22;38310;52.796;6.942;2023-06-19T04:09:25;21.80;99.90
52381;DHT22;38310;52.796;6.942;2023-06-19T04:11:50;21.80;99.90
52381;DHT22;38310;52.796;6.942;2023-06-19T04:14:16;21.80;99.90
52381;DHT22;38310;52.796;6.942;2023-06-19T04:16:42;21.80;99.90
52381;DHT22;38310;52.796;6.942;2023-06-19T04:19:08;21.70;99.90
52381;DHT22;38310;52.796;6.942;2023-06-19T04:21:33;21.70;99.90
52381;DHT22;38310;52.796;6.942;2023-06-19T04:23:59;21.60;99.90
52381;DHT22;38310;52.796;6.942;2023-06-19T04:26:25;21.70;99.90
52381;DHT22;38310;52.796;6.942;2023-06-19T04:28:51;21.70;99.90
52381;DHT22;38310;52.796;6.942;2023-06-19T04:31:16;21.70;99.90
52381;DHT22;38310;52.796;6.942;2023-06-19T04:33:45;21.70;99.90
52381;DHT22;38310;52.796;6.942;2023-06-19T04:36:11;21.60;99.90
52381;DHT22;38310;52.796;6.942;2023-06-19T04:38:36;21.60;99.90
52381;DHT22;38310;52.796;6.942;2023-06-19T04:41:02;21.60;99.90
52381;DHT22;38310;52.796;6.942;2023-06-19T04:43:28;21.60;99.90
52381;DHT22;38310;52.796;6.942;2023-06-19T04:45:53;21.60;99.90
52381;DHT22;38310;52.796;6.942;2023-06-19T04:48:19;21.60;99.90
52381;DHT22;38310;52.796;6.942;2023-06-19T04:50:45;21.50;99.90
52381;DHT22;38310;52.796;6.942;2023-06-19T04:53:11;21.50;99.90
52381;DHT22;38310;52.796;6.942;2023-06-19T04:55:37;21.50;99.90
52381;DHT22;38310;52.796;6.942;2023-06-19T04:58:03;21.50;99.90
52381;DHT22;38310;52.796;6.942;2023-06-19T05:00:28;21.50;99.90
52381;DHT22;38310;52.796;6.942;2023-06-19T05:02:54;21.60;99.90
52381;DHT22;38310;52.796;6.942;2023-06-19T05:05:26;21.60;99.90
52381;DHT22;38310;52.796;6.942;2023-06-19T05:07:52;21.50;99.90
52381;DHT22;38310;52.796;6.942;2023-06-19T05:10:18;21.60;99.90
52381;DHT22;38310;52.796;6.942;2023-06-19T05:12:44;21.60;99.90
52381;DHT22;38310;52.796;6.942;2023-06-19T05:15:10;21.60;99.90
52381;DHT22;38310;52.796;6.942;2023-06-19T05:17:36;21.60;99.90
52381;DHT22;38310;52.796;6.942;2023-06-19T05:20:05;21.60;99.90
52381;DHT22;38310;52.796;6.942;2023-06-19T05:22:32;21.60;99.90
52381;DHT22;38310;52.796;6.942;2023-06-19T05:25:00;21.40;99.90
52381;DHT22;38310;52.796;6.942;2023-06-19T05:27:26;21.30;99.90
52381;DHT22;38310;52.796;6.942;2023-06-19T05:29:52;21.30;99.90
52381;DHT22;38310;52.796;6.942;2023-06-19T05:32:17;21.20;99.90
52381;DHT22;38310;52.796;6.942;2023-06-19T05:34:43;21.10;99.90
52381;DHT22;38310;52.796;6.942;2023-06-19T05:37:09;21.10;99.90
52381;DHT22;38310;52.796;6.942;2023-06-19T05:39:35;21.00;99.90
52381;DHT22;38310;52.796;6.942;2023-06-19T05:42:00;21.00;99.90
52381;DHT22;38310;52.796;6.942;2023-06-19T05:44:27;21.10;99.90
52381;DHT22;38310;52.796;6.942;2023-06-19T05:46:53;21.00;99.90
52381;DHT22;38310;52.796;6.942;2023-06-19T05:49:18;20.90;99.90
52381;DHT22;38310;52.796;6.942;2023-06-19T05:51:44;20.90;99.90
52381;DHT22;38310;52.796;6.942;2023-06-19T05:54:10;20.90;99.90
52381;DHT22;38310;52.796;6.942;2023-06-19T05:56:36;21.00;99.90
52381;DHT22;38310;52.796;6.942;2023-06-19T05:59:02;21.00;99.90
52381;DHT22;38310;52.796;6.942;2023-06-19T06:01:31;21.10;99.90
52381;DHT22;38310;52.796;6.942;2023-06-19T06:03:57;21.20;99.90
52381;DHT22;38310;52.796;6.942;2023-06-19T06:06:23;21.30;99.90
52381;DHT22;38310;52.796;6.942;2023-06-19T06:08:49;21.30;99.90
52381;DHT22;38310;52.796;6.942;2023-06-19T06:11:17;21.40;99.90
52381;DHT22;38310;52.796;6.942;2023-06-19T06:13:45;21.40;99.90
52381;DHT22;38310;52.796;6.942;2023-06-19T06:16:11;21.40;99.90
52381;DHT22;38310;52.796;6.942;2023-06-19T06:18:36;21.50;99.90
52381;DHT22;38310;52.796;6.942;2023-06-19T06:21:02;21.60;99.90
52381;DHT22;38310;52.796;6.942;2023-06-19T06:23:29;21.70;99.90
52381;DHT22;38310;52.796;6.942;2023-06-19T06:25:54;21.70;99.90
52381;DHT22;38310;52.796;6.942;2023-06-19T06:28:26;21.90;99.90
52381;DHT22;38310;52.796;6.942;2023-06-19T06:30:52;22.00;99.90
52381;DHT22;38310;52.796;6.942;2023-06-19T06:33:18;21.80;99.90
52381;DHT22;38310;52.796;6.942;2023-06-19T06:35:44;21.70;99.90
52381;DHT22;38310;52.796;6.942;2023-06-19T06:38:09;21.90;99.90
52381;DHT22;38310;52.796;6.942;2023-06-19T06:40:35;21.90;99.90
52381;DHT22;38310;52.796;6.942;2023-06-19T06:43:02;21.90;99.90
52381;DHT22;38310;52.796;6.942;2023-06-19T06:45:27;22.10;99.90
52381;DHT22;38310;52.796;6.942;2023-06-19T06:47:53;21.90;99.90
52381;DHT22;38310;52.796;6.942;2023-06-19T06:50:19;21.90;99.90
52381;DHT22;38310;52.796;6.942;2023-06-19T06:52:44;21.80;99.90
52381;DHT22;38310;52.796;6.942;2023-06-19T06:55:10;21.80;99.90
52381;DHT22;38310;52.796;6.942;2023-06-19T06:57:36;21.90;99.90
52381;DHT22;38310;52.796;6.942;2023-06-19T07:00:04;21.90;99.90
52381;DHT22;38310;52.796;6.942;2023-06-19T07:02:30;21.90;99.90
52381;DHT22;38310;52.796;6.942;2023-06-19T07:04:56;21.90;99.90
52381;DHT22;38310;52.796;6.942;2023-06-19T07:07:22;21.90;99.90
52381;DHT22;38310;52.796;6.942;2023-06-19T07:09:47;21.90;99.90
52381;DHT22;38310;52.796;6.942;2023-06-19T07:12:13;21.90;99.90
52381;DHT22;38310;52.796;6.942;2023-06-19T07:14:39;22.00;99.90
52381;DHT22;38310;52.796;6.942;2023-06-19T07:17:04;22.10;99.90
52381;DHT22;38310;52.796;6.942;2023-06-19T07:19:32;22.30;99.90
52381;DHT22;38310;52.796;6.942;2023-06-19T07:21:58;22.30;99.90
52381;DHT22;38310;52.796;6.942;2023-06-19T07:24:24;22.20;99.90
52381;DHT22;38310;52.796;6.942;2023-06-19T07:26:50;22.10;99.90
52381;DHT22;38310;52.796;6.942;2023-06-19T07:29:16;22.20;99.90
52381;DHT22;38310;52.796;6.942;2023-06-19T07:31:42;22.20;99.90
52381;DHT22;38310;52.796;6.942;2023-06-19T07:34:08;22.30;99.90
52381;DHT22;38310;52.796;6.942;2023-06-19T07:36:34;22.10;99.90
52381;DHT22;38310;52.796;6.942;2023-06-19T07:38:59;22.00;99.90
52381;DHT22;38310;52.796;6.942;2023-06-19T07:41:25;22.00;99.90
52381;DHT22;38310;52.796;6.942;2023-06-19T07:43:51;21.90;99.90
52381;DHT22;38310;52.796;6.942;2023-06-19T07:46:16;21.70;99.90
52381;DHT22;38310;52.796;6.942;2023-06-19T07:48:42;21.80;99.90
52381;DHT22;38310;52.796;6.942;2023-06-19T07:51:08;21.90;99.90
52381;DHT22;38310;52.796;6.942;2023-06-19T07:53:34;21.90;99.90
52381;DHT22;38310;52.796;6.942;2023-06-19T07:55:59;22.10;99.90
52381;DHT22;38310;52.796;6.942;2023-06-19T07:58:25;22.10;99.90
52381;DHT22;38310;52.796;6.942;2023-06-19T08:00:51;22.20;99.90
52381;DHT22;38310;52.796;6.942;2023-06-19T08:03:17;22.10;99.90
52381;DHT22;38310;52.796;6.942;2023-06-19T08:05:42;22.30;99.90
52381;DHT22;38310;52.796;6.942;2023-06-19T08:08:08;22.40;99.90
52381;DHT22;38310;52.796;6.942;2023-06-19T08:10:34;22.60;99.90
52381;DHT22;38310;52.796;6.942;2023-06-19T08:13:00;22.50;99.90
52381;DHT22;38310;52.796;6.942;2023-06-19T08:15:25;22.40;99.90
52381;DHT22;38310;52.796;6.942;2023-06-19T08:17:52;22.30;99.90
52381;DHT22;38310;52.796;6.942;2023-06-19T08:20:17;22.40;99.90
52381;DHT22;38310;52.796;6.942;2023-06-19T08:22:45;22.40;99.90
52381;DHT22;38310;52.796;6.942;2023-06-19T08:25:10;22.40;99.90
52381;DHT22;38310;52.796;6.942;2023-06-19T08:27:36;22.50;99.90
52381;DHT22;38310;52.796;6.942;2023-06-19T08:30:02;22.50;99.90
52381;DHT22;38310;52.796;6.942;2023-06-19T08:32:28;22.50;99.90
52381;DHT22;38310;52.796;6.942;2023-06-19T08:34:54;22.40;99.90
52381;DHT22;38310;52.796;6.942;2023-06-19T08:37:20;22.20;99.90
52381;DHT22;38310;52.796;6.942;2023-06-19T08:39:45;22.10;99.90
52381;DHT22;38310;52.796;6.942;2023-06-19T08:42:11;22.20;99.90
52381;DHT22;38310;52.796;6.942;2023-06-19T08:44:37;22.30;99.90
52381;DHT22;38310;52.796;6.942;2023-06-19T08:47:04;22.20;99.90
52381;DHT22;38310;52.796;6.942;2023-06-19T08:49:30;22.20;99.90
52381;DHT22;38310;52.796;6.942;2023-06-19T08:51:57;22.20;99.90
52381;DHT22;38310;52.796;6.942;2023-06-19T08:54:22;22.20;99.90
52381;DHT22;38310;52.796;6.942;2023-06-19T08:56:48;22.30;99.90
52381;DHT22;38310;52.796;6.942;2023-06-19T08:59:16;22.20;99.90
52381;DHT22;38310;52.796;6.942;2023-06-19T09:01:50;22.10;99.90
52381;DHT22;38310;52.796;6.942;2023-06-19T09:04:24;22.00;99.90
52381;DHT22;38310;52.796;6.942;2023-06-19T09:06:57;21.90;99.90
52381;DHT22;38310;52.796;6.942;2023-06-19T09:09:25;21.80;99.90
52381;DHT22;38310;52.796;6.942;2023-06-19T09:17:06;21.60;99.90
52381;DHT22;38310;52.796;6.942;2023-06-19T09:19:35;21.50;99.90
52381;DHT22;38310;52.796;6.942;2023-06-19T09:22:06;21.50;99.90
52381;DHT22;38310;52.796;6.942;2023-06-19T09:24:37;21.50;99.90
52381;DHT22;38310;52.796;6.942;2023-06-19T09:27:17;21.40;99.90
52381;DHT22;38310;52.796;6.942;2023-06-19T09:29:49;21.40;99.90
52381;DHT22;38310;52.796;6.942;2023-06-19T09:32:19;21.40;99.90
52381;DHT22;38310;52.796;6.942;2023-06-19T09:34:45;21.50;99.90
52381;DHT22;38310;52.796;6.942;2023-06-19T09:37:12;21.60;99.90
52381;DHT22;38310;52.796;6.942;2023-06-19T09:39:38;21.70;99.90
52381;DHT22;38310;52.796;6.942;2023-06-19T09:42:07;21.70;99.90
52381;DHT22;38310;52.796;6.942;2023-06-19T09:44:40;21.80;99.90
52381;DHT22;38310;52.796;6.942;2023-06-19T09:47:16;21.90;99.90
52381;DHT22;38310;52.796;6.942;2023-06-19T09:49:53;22.00;99.90
52381;DHT22;38310;52.796;6.942;2023-06-19T09:52:20;22.30;99.90
52381;DHT22;38310;52.796;6.942;2023-06-19T09:54:53;22.60;99.90
52381;DHT22;38310;52.796;6.942;2023-06-19T09:57:19;23.20;99.90
52381;DHT22;38310;52.796;6.942;2023-06-19T09:59:51;23.30;99.90
52381;DHT22;38310;52.796;6.942;2023-06-19T10:02:19;23.10;99.90
52381;DHT22;38310;52.796;6.942;2023-06-19T10:04:51;23.20;99.90
52381;DHT22;38310;52.796;6.942;2023-06-19T10:07:22;23.30;99.90
52381;DHT22;38310;52.796;6.942;2023-06-19T10:09:56;23.40;99.90
52381;DHT22;38310;52.796;6.942;2023-06-19T10:12:22;23.80;99.90
52381;DHT22;38310;52.796;6.942;2023-06-19T10:14:48;24.20;99.90
52381;DHT22;38310;52.796;6.942;2023-06-19T10:17:17;24.10;99.90
52381;DHT22;38310;52.796;6.942;2023-06-19T10:19:50;24.30;99.90
52381;DHT22;38310;52.796;6.942;2023-06-19T10:22:20;24.40;99.90
52381;DHT22;38310;52.796;6.942;2023-06-19T10:24:50;24.60;99.90
52381;DHT22;38310;52.796;6.942;2023-06-19T10:27:21;24.80;99.90
52381;DHT22;38310;52.796;6.942;2023-06-19T10:29:54;24.80;99.90
52381;DHT22;38310;52.796;6.942;2023-06-19T10:32:21;24.80;99.90
52381;DHT22;38310;52.796;6.942;2023-06-19T10:34:48;24.40;99.90
52381;DHT22;38310;52.796;6.942;2023-06-19T10:37:17;24.50;99.90
52381;DHT22;38310;52.796;6.942;2023-06-19T10:39:43;24.40;99.90
52381;DHT22;38310;52.796;6.942;2023-06-19T10:42:10;24.90;99.90
52381;DHT22;38310;52.796;6.942;2023-06-19T10:44:36;25.30;99.90
52381;DHT22;38310;52.796;6.942;2023-06-19T10:47:05;25.30;99.90
52381;DHT22;38310;52.796;6.942;2023-06-19T10:49:32;25.40;99.90
52381;DHT22;38310;52.796;6.942;2023-06-19T10:51:59;25.40;99.90
52381;DHT22;38310;52.796;6.942;2023-06-19T10:54:27;25.40;99.90
52381;DHT22;38310;52.796;6.942;2023-06-19T10:56:53;25.80;99.90
52381;DHT22;38310;52.796;6.942;2023-06-19T10:59:20;25.50;99.90
52381;DHT22;38310;52.796;6.942;2023-06-19T11:01:47;25.70;99.90
52381;DHT22;38310;52.796;6.942;2023-06-19T11:04:15;25.70;99.90
52381;DHT22;38310;52.796;6.942;2023-06-19T11:06:42;25.10;99.90
52381;DHT22;38310;52.796;6.942;2023-06-19T11:09:10;25.60;99.90
52381;DHT22;38310;52.796;6.942;2023-06-19T11:11:36;25.30;99.90
52381;DHT22;38310;52.796;6.942;2023-06-19T11:14:02;25.70;99.90
52381;DHT22;38310;52.796;6.942;2023-06-19T11:16:28;26.00;99.90
52381;DHT22;38310;52.796;6.942;2023-06-19T11:18:57;26.30;99.90
52381;DHT22;38310;52.796;6.942;2023-06-19T11:21:34;26.40;99.90
52381;DHT22;38310;52.796;6.942;2023-06-19T11:24:02;26.60;99.90
52381;DHT22;38310;52.796;6.942;2023-06-19T11:26:28;26.90;99.90
52381;DHT22;38310;52.796;6.942;2023-06-19T11:28:54;27.10;99.90
52381;DHT22;38310;52.796;6.942;2023-06-19T11:31:27;27.40;99.90
52381;DHT22;38310;52.796;6.942;2023-06-19T11:33:59;27.40;99.90
52381;DHT22;38310;52.796;6.942;2023-06-19T11:36:28;27.50;99.90
52381;DHT22;38310;52.796;6.942;2023-06-19T11:38:55;27.30;99.90
52381;DHT22;38310;52.796;6.942;2023-06-19T11:41:27;27.30;99.90
52381;DHT22;38310;52.796;6.942;2023-06-19T11:44:02;27.10;99.90
52381;DHT22;38310;52.796;6.942;2023-06-19T11:46:29;27.70;99.90
52381;DHT22;38310;52.796;6.942;2023-06-19T11:49:15;27.20;99.90
52381;DHT22;38310;52.796;6.942;2023-06-19T11:51:43;27.70;99.90
52381;DHT22;38310;52.796;6.942;2023-06-19T11:54:11;26.80;99.90
52381;DHT22;38310;52.796;6.942;2023-06-19T11:56:40;27.50;99.90
52381;DHT22;38310;52.796;6.942;2023-06-19T11:59:06;27.80;99.90
52381;DHT22;38310;52.796;6.942;2023-06-19T12:01:33;28.10;99.90
52381;DHT22;38310;52.796;6.942;2023-06-19T12:04:00;28.20;99.90
52381;DHT22;38310;52.796;6.942;2023-06-19T12:06:26;28.10;99.80
52381;DHT22;38310;52.796;6.942;2023-06-19T12:08:52;27.80;99.90
52381;DHT22;38310;52.796;6.942;2023-06-19T12:11:18;27.30;99.90
52381;DHT22;38310;52.796;6.942;2023-06-19T12:13:44;28.10;99.90
52381;DHT22;38310;52.796;6.942;2023-06-19T12:16:10;27.90;99.90
52381;DHT22;38310;52.796;6.942;2023-06-19T12:18:36;27.60;99.80
52381;DHT22;38310;52.796;6.942;2023-06-19T12:21:03;28.20;99.90
52381;DHT22;38310;52.796;6.942;2023-06-19T12:23:29;28.30;99.90
52381;DHT22;38310;52.796;6.942;2023-06-19T12:25:55;28.50;99.90
52381;DHT22;38310;52.796;6.942;2023-06-19T12:28:21;29.00;99.50
52381;DHT22;38310;52.796;6.942;2023-06-19T12:30:48;29.00;99.20
52381;DHT22;38310;52.796;6.942;2023-06-19T12:33:19;28.70;99.30
52381;DHT22;38310;52.796;6.942;2023-06-19T12:35:46;29.10;99.50
52381;DHT22;38310;52.796;6.942;2023-06-19T12:38:12;28.90;99.10
52381;DHT22;38310;52.796;6.942;2023-06-19T12:40:38;28.80;98.80
52381;DHT22;38310;52.796;6.942;2023-06-19T12:43:04;28.60;99.00
52381;DHT22;38310;52.796;6.942;2023-06-19T12:45:30;28.50;98.90
52381;DHT22;38310;52.796;6.942;2023-06-19T12:47:56;28.70;99.30
52381;DHT22;38310;52.796;6.942;2023-06-19T12:50:22;28.40;98.60
52381;DHT22;38310;52.796;6.942;2023-06-19T12:52:48;27.80;98.70
52381;DHT22;38310;52.796;6.942;2023-06-19T12:55:14;27.90;99.00
52381;DHT22;38310;52.796;6.942;2023-06-19T12:57:40;27.90;99.20
52381;DHT22;38310;52.796;6.942;2023-06-19T13:00:09;27.40;99.10
52381;DHT22;38310;52.796;6.942;2023-06-19T13:02:35;27.40;99.60
52381;DHT22;38310;52.796;6.942;2023-06-19T13:05:01;27.50;99.60
52381;DHT22;38310;52.796;6.942;2023-06-19T13:07:26;27.80;99.70
52381;DHT22;38310;52.796;6.942;2023-06-19T13:09:52;28.30;99.80
52381;DHT22;38310;52.796;6.942;2023-06-19T13:12:18;28.60;99.20
52381;DHT22;38310;52.796;6.942;2023-06-19T13:14:44;28.60;98.70
52381;DHT22;38310;52.796;6.942;2023-06-19T13:17:09;28.50;98.80
52381;DHT22;38310;52.796;6.942;2023-06-19T13:19:35;28.90;99.10
52381;DHT22;38310;52.796;6.942;2023-06-19T13:22:01;28.60;98.60
52381;DHT22;38310;52.796;6.942;2023-06-19T13:24:27;27.90;98.80
52381;DHT22;38310;52.796;6.942;2023-06-19T13:26:53;28.60;98.80
52381;DHT22;38310;52.796;6.942;2023-06-19T13:29:19;29.00;98.70
52381;DHT22;38310;52.796;6.942;2023-06-19T13:31:45;28.70;98.00
52381;DHT22;38310;52.796;6.942;2023-06-19T13:34:10;28.90;98.40
52381;DHT22;38310;52.796;6.942;2023-06-19T13:36:36;28.60;98.10
52381;DHT22;38310;52.796;6.942;2023-06-19T13:39:02;28.40;98.50
52381;DHT22;38310;52.796;6.942;2023-06-19T13:41:28;27.70;98.20
52381;DHT22;38310;52.796;6.942;2023-06-19T13:43:56;28.00;98.70
52381;DHT22;38310;52.796;6.942;2023-06-19T13:46:22;27.70;98.00
52381;DHT22;38310;52.796;6.942;2023-06-19T13:48:48;28.20;98.50
52381;DHT22;38310;52.796;6.942;2023-06-19T13:51:21;28.40;97.60
52381;DHT22;38310;52.796;6.942;2023-06-19T13:53:48;28.10;98.00
52381;DHT22;38310;52.796;6.942;2023-06-19T13:56:14;28.10;98.20
52381;DHT22;38310;52.796;6.942;2023-06-19T13:58:40;27.80;98.60
52381;DHT22;38310;52.796;6.942;2023-06-19T14:01:06;28.20;98.30
52381;DHT22;38310;52.796;6.942;2023-06-19T14:03:32;28.50;97.80
52381;DHT22;38310;52.796;6.942;2023-06-19T14:05:57;28.50;98.00
52381;DHT22;38310;52.796;6.942;2023-06-19T14:08:23;29.00;98.10
52381;DHT22;38310;52.796;6.942;2023-06-19T14:10:50;29.10;98.10
52381;DHT22;38310;52.796;6.942;2023-06-19T14:13:16;28.20;97.80
52381;DHT22;38310;52.796;6.942;2023-06-19T14:15:42;28.60;98.10
52381;DHT22;38310;52.796;6.942;2023-06-19T14:18:08;28.70;98.00
52381;DHT22;38310;52.796;6.942;2023-06-19T14:20:34;28.30;98.00
52381;DHT22;38310;52.796;6.942;2023-06-19T14:23:00;28.60;98.60
52381;DHT22;38310;52.796;6.942;2023-06-19T14:25:26;27.90;97.40
52381;DHT22;38310;52.796;6.942;2023-06-19T14:27:51;27.90;97.50
52381;DHT22;38310;52.796;6.942;2023-06-19T14:30:18;28.00;97.20
52381;DHT22;38310;52.796;6.942;2023-06-19T14:32:44;28.20;97.50
52381;DHT22;38310;52.796;6.942;2023-06-19T14:35:10;28.30;97.30
52381;DHT22;38310;52.796;6.942;2023-06-19T14:37:36;28.50;97.10
52381;DHT22;38310;52.796;6.942;2023-06-19T14:40:02;28.40;96.70
52381;DHT22;38310;52.796;6.942;2023-06-19T14:42:28;28.20;96.70
52381;DHT22;38310;52.796;6.942;2023-06-19T14:44:54;28.40;97.00
52381;DHT22;38310;52.796;6.942;2023-06-19T14:47:20;28.50;96.40
52381;DHT22;38310;52.796;6.942;2023-06-19T14:49:46;28.70;96.80
52381;DHT22;38310;52.796;6.942;2023-06-19T14:52:13;28.30;96.30
52381;DHT22;38310;52.796;6.942;2023-06-19T14:54:39;28.50;96.70
52381;DHT22;38310;52.796;6.942;2023-06-19T14:57:04;28.20;96.80
52381;DHT22;38310;52.796;6.942;2023-06-19T14:59:30;28.30;96.20
52381;DHT22;38310;52.796;6.942;2023-06-19T15:01:56;28.00;96.30
52381;DHT22;38310;52.796;6.942;2023-06-19T15:04:22;27.70;96.20
52381;DHT22;38310;52.796;6.942;2023-06-19T15:06:48;28.00;96.70
52381;DHT22;38310;52.796;6.942;2023-06-19T15:09:14;27.70;96.00
52381;DHT22;38310;52.796;6.942;2023-06-19T15:11:39;27.70;96.60
52381;DHT22;38310;52.796;6.942;2023-06-19T15:14:05;28.00;96.40
52381;DHT22;38310;52.796;6.942;2023-06-19T15:16:31;28.10;96.30
52381;DHT22;38310;52.796;6.942;2023-06-19T15:18:57;27.90;96.10
52381;DHT22;38310;52.796;6.942;2023-06-19T15:21:22;28.40;96.10
52381;DHT22;38310;52.796;6.942;2023-06-19T15:23:48;28.00;95.40
52381;DHT22;38310;52.796;6.942;2023-06-19T15:26:15;28.50;95.50
52381;DHT22;38310;52.796;6.942;2023-06-19T15:28:40;28.50;94.90
52381;DHT22;38310;52.796;6.942;2023-06-19T15:31:09;28.40;94.50
52381;DHT22;38310;52.796;6.942;2023-06-19T15:33:35;27.90;94.50
52381;DHT22;38310;52.796;6.942;2023-06-19T15:36:01;28.00;94.90
52381;DHT22;38310;52.796;6.942;2023-06-19T15:38:26;28.20;94.60